createdAt,value
2022-08-14T00:02:19.074Z,6.32
2022-08-14T00:04:47.678Z,6.55
2022-08-14T00:07:16.346Z,6.00
2022-08-14T00:10:02.518Z,6.03
2022-08-14T00:12:39.128Z,5.65
2022-08-14T00:15:21.936Z,5.78
2022-08-14T00:17:53.629Z,5.85
2022-08-14T00:20:35.842Z,5.85
2022-08-14T00:23:16.641Z,6.40
2022-08-14T00:25:54.095Z,6.25
2022-08-14T00:28:36.917Z,6.90
2022-08-14T00:31:09.600Z,6.30
2022-08-14T00:33:51.468Z,5.85
2022-08-14T00:36:36.387Z,5.38
2022-08-14T00:39:17.969Z,5.57
2022-08-14T00:41:47.541Z,5.95
2022-08-14T00:44:26.676Z,6.10
2022-08-14T00:47:03.862Z,5.93
2022-08-14T00:49:37.847Z,5.82
2022-08-14T00:52:14.236Z,6.28
2022-08-14T00:54:53.082Z,6.32
2022-08-14T00:57:28.427Z,7.10
2022-08-14T00:59:58.477Z,6.68
2022-08-14T01:02:31.948Z,6.43
2022-08-14T01:05:02.915Z,5.68
2022-08-14T01:07:38.589Z,7.13
2022-08-14T01:10:16.891Z,6.30
2022-08-14T01:12:47.897Z,6.80
2022-08-14T01:15:31.775Z,6.88
2022-08-14T01:18:29.343Z,7.72
2022-08-14T01:21:07.198Z,7.45
2022-08-14T01:23:46.690Z,7.15
2022-08-14T01:26:23.527Z,6.38
2022-08-14T01:29:06.872Z,6.60
2022-08-14T01:31:42.687Z,8.10
2022-08-14T01:35:19.978Z,6.53
2022-08-14T01:37:03.105Z,7.57
2022-08-14T01:39:38.205Z,7.00
2022-08-14T01:42:07.124Z,6.45
2022-08-14T01:44:41.316Z,7.32
2022-08-14T01:47:21.840Z,7.20
2022-08-14T01:49:59.745Z,6.20
2022-08-14T01:52:58.760Z,7.30
2022-08-14T01:55:30.740Z,5.63
2022-08-14T01:58:18.107Z,6.07
2022-08-14T02:00:48.412Z,6.80
2022-08-14T02:03:17.966Z,6.60
2022-08-14T02:05:47.085Z,7.15
2022-08-14T02:08:16.031Z,6.15
2022-08-14T02:11:16.053Z,5.53
2022-08-14T02:13:50.558Z,7.25
2022-08-14T02:16:26.249Z,7.70
2022-08-14T02:18:56.858Z,6.85
2022-08-14T02:21:27.807Z,39.38
2022-08-14T02:23:57.533Z,6.18
2022-08-14T02:26:30.968Z,6.38
2022-08-14T02:29:03.449Z,7.32
2022-08-14T02:31:43.226Z,7.40
2022-08-14T02:34:22.162Z,6.95
2022-08-14T02:37:03.741Z,6.38
2022-08-14T02:39:37.673Z,6.70
2022-08-14T02:42:13.114Z,6.72
2022-08-14T02:44:49.418Z,6.88
2022-08-14T02:47:20.952Z,6.30
2022-08-14T02:49:54.799Z,6.63
2022-08-14T02:52:57.460Z,6.53
2022-08-14T02:55:20.099Z,6.82
2022-08-14T02:58:03.209Z,6.80
2022-08-14T03:00:39.689Z,7.10
2022-08-14T03:03:09.143Z,6.20
2022-08-14T03:05:41.136Z,5.82
2022-08-14T03:08:16.015Z,6.13
2022-08-14T03:10:49.242Z,6.90
2022-08-14T03:13:21.603Z,7.05
2022-08-14T03:15:56.085Z,6.57
2022-08-14T03:18:30.904Z,6.85
2022-08-14T03:21:02.557Z,7.75
2022-08-14T03:23:37.858Z,6.38
2022-08-14T03:26:13.135Z,6.53
2022-08-14T03:28:51.290Z,6.25
2022-08-14T03:31:26.019Z,6.60
2022-08-14T03:34:00.137Z,7.15
2022-08-14T03:37:37.816Z,6.22
2022-08-14T03:39:24.177Z,6.25
2022-08-14T03:41:59.807Z,7.38
2022-08-14T03:45:19.717Z,7.53
2022-08-14T03:47:21.044Z,6.85
2022-08-14T03:49:50.415Z,7.07
2022-08-14T03:52:55.573Z,121.22
2022-08-14T03:55:12.464Z,6.63
2022-08-14T03:57:41.539Z,7.00
2022-08-14T04:00:42.730Z,220.70
2022-08-14T04:03:04.880Z,5.95
2022-08-14T04:05:38.110Z,6.13
2022-08-14T04:08:29.293Z,6.65
2022-08-14T04:11:01.238Z,6.97
2022-08-14T04:13:31.862Z,7.40
2022-08-14T04:16:12.350Z,237.23
2022-08-14T04:18:42.483Z,215.90
2022-08-14T04:21:12.077Z,186.48
2022-08-14T04:23:40.918Z,143.10
2022-08-14T04:26:14.983Z,129.00
2022-08-14T04:29:08.054Z,135.57
2022-08-14T04:33:10.596Z,142.35
2022-08-14T04:34:33.979Z,102.85
2022-08-14T04:37:24.713Z,127.18
2022-08-14T04:40:13.218Z,117.18
2022-08-14T04:43:01.525Z,129.88
2022-08-14T04:45:37.431Z,176.48
2022-08-14T04:48:36.614Z,162.57
2022-08-14T04:51:06.765Z,154.57
2022-08-14T04:53:40.871Z,185.85
2022-08-14T04:56:31.099Z,189.85
2022-08-14T04:59:10.360Z,169.18
2022-08-14T05:01:48.714Z,178.02
2022-08-14T05:04:21.814Z,165.27
2022-08-14T05:06:54.275Z,156.07
2022-08-14T05:09:29.152Z,230.35
2022-08-14T05:13:10.701Z,179.70
2022-08-14T05:14:54.877Z,6.93
2022-08-14T05:17:32.116Z,7.28
2022-08-14T05:21:55.311Z,7.10
2022-08-14T05:23:03.687Z,6.75
2022-08-14T05:25:34.266Z,7.72
2022-08-14T05:28:12.526Z,7.63
2022-08-14T05:30:46.489Z,8.35
2022-08-14T05:33:16.378Z,7.22
2022-08-14T05:35:46.811Z,7.45
2022-08-14T05:38:31.330Z,6.97
2022-08-14T05:41:01.554Z,6.70
2022-08-14T05:43:40.994Z,6.53
2022-08-14T05:46:15.130Z,6.18
2022-08-14T05:48:44.171Z,6.03
2022-08-14T05:51:15.457Z,6.28
2022-08-14T05:53:59.984Z,6.57
2022-08-14T05:56:33.094Z,7.10
2022-08-14T05:59:07.386Z,7.00
2022-08-14T06:01:36.356Z,6.20
2022-08-14T06:04:05.464Z,6.55
2022-08-14T06:06:38.650Z,6.30
2022-08-14T06:09:09.907Z,7.00
2022-08-14T06:11:39.096Z,6.97
2022-08-14T06:14:20.606Z,6.70
2022-08-14T06:16:52.947Z,5.50
2022-08-14T06:19:23.248Z,147.85
2022-08-14T06:21:59.325Z,233.30
2022-08-14T06:24:30.777Z,6.40
2022-08-14T06:27:06.165Z,5.40
2022-08-14T06:29:38.764Z,6.45
2022-08-14T06:32:37.328Z,6.05
2022-08-14T06:35:02.140Z,6.30
2022-08-14T06:37:43.951Z,5.70
2022-08-14T06:40:25.715Z,5.97
2022-08-14T06:43:00.045Z,336.88
2022-08-14T06:45:29.587Z,5.35
2022-08-14T06:47:58.766Z,6.22
2022-08-14T06:50:30.204Z,6.40
2022-08-14T06:53:00.550Z,6.78
2022-08-14T06:55:29.422Z,6.72
2022-08-14T06:57:58.484Z,5.95
2022-08-14T07:00:31.087Z,6.43
2022-08-14T07:03:17.617Z,6.35
2022-08-14T07:05:55.529Z,5.70
2022-08-14T07:08:32.076Z,7.53
2022-08-14T07:11:04.132Z,8.70
2022-08-14T07:13:32.934Z,8.63
2022-08-14T07:16:05.501Z,6.07
2022-08-14T07:18:36.420Z,6.18
2022-08-14T07:21:07.313Z,5.28
2022-08-14T07:23:40.183Z,5.32
2022-08-14T07:26:13.705Z,6.03
2022-08-14T07:28:44.101Z,7.35
2022-08-14T07:31:13.875Z,7.40
2022-08-14T07:33:50.138Z,6.88
2022-08-14T07:36:27.480Z,7.40
2022-08-14T07:39:03.085Z,7.30
2022-08-14T07:41:42.409Z,6.28
2022-08-14T07:44:29.348Z,6.65
2022-08-14T07:47:00.881Z,6.65
2022-08-14T07:49:30.148Z,6.68
2022-08-14T07:52:00.167Z,5.75
2022-08-14T07:54:31.786Z,6.40
2022-08-14T07:57:06.263Z,5.63
2022-08-14T07:59:44.505Z,5.50
2022-08-14T08:02:20.368Z,4.75
2022-08-14T08:04:53.084Z,4.28
2022-08-14T08:07:23.957Z,4.30
2022-08-14T08:09:57.250Z,4.20
2022-08-14T08:12:31.129Z,4.40
2022-08-14T08:15:03.176Z,3.80
2022-08-14T08:17:42.766Z,4.60
2022-08-14T08:20:27.216Z,3.90
2022-08-14T08:23:00.636Z,3.42
2022-08-14T08:25:39.838Z,4.05
2022-08-14T08:28:25.113Z,3.92
2022-08-14T08:30:56.783Z,2.70
2022-08-14T08:33:32.093Z,1.85
2022-08-14T08:36:12.467Z,1.98
2022-08-14T08:39:17.303Z,1.92
2022-08-14T08:41:43.345Z,2.33
2022-08-14T08:44:31.146Z,1.80
2022-08-14T08:47:05.783Z,2.03
2022-08-14T08:49:43.207Z,1.98
2022-08-14T08:52:25.404Z,2.00
2022-08-14T08:55:01.116Z,1.80
2022-08-14T08:57:38.065Z,2.17
2022-08-14T09:00:24.195Z,2.80
2022-08-14T09:02:57.693Z,2.25
2022-08-14T09:05:27.492Z,2.15
2022-08-14T09:07:56.920Z,2.08
2022-08-14T09:10:27.072Z,2.03
2022-08-14T09:12:57.910Z,2.03
2022-08-14T09:15:42.560Z,2.10
2022-08-14T09:18:12.627Z,2.25
2022-08-14T09:20:51.352Z,2.05
2022-08-14T09:23:27.402Z,1.90
2022-08-14T09:26:05.103Z,1.90
2022-08-14T09:28:51.463Z,1.85
2022-08-14T09:31:21.507Z,2.67
2022-08-14T09:34:09.188Z,2.05
2022-08-14T09:37:05.101Z,2.85
2022-08-14T09:39:47.988Z,3.05
2022-08-14T09:42:33.218Z,2.53
2022-08-14T09:45:15.458Z,2.08
2022-08-14T09:47:49.080Z,1.88
2022-08-14T09:50:28.009Z,2.10
2022-08-14T09:52:59.621Z,1.65
2022-08-14T09:55:41.686Z,1.63
2022-08-14T09:58:20.080Z,1.90
2022-08-14T10:00:55.071Z,1.90
2022-08-14T10:03:34.267Z,2.20
2022-08-14T10:06:10.349Z,2.08
2022-08-14T10:08:45.385Z,1.67
2022-08-14T10:11:23.588Z,1.40
2022-08-14T10:13:55.983Z,1.98
2022-08-14T10:16:33.758Z,2.20
2022-08-14T10:19:09.644Z,2.60
2022-08-14T10:21:58.683Z,2.10
2022-08-14T10:24:36.688Z,2.38
2022-08-14T10:27:06.931Z,1.90
2022-08-14T10:29:38.531Z,2.15
2022-08-14T10:32:18.187Z,2.88
2022-08-14T10:35:06.897Z,3.13
2022-08-14T10:37:46.919Z,1.95
2022-08-14T10:40:43.495Z,3.90
2022-08-14T10:43:18.329Z,2.50
2022-08-14T10:45:59.859Z,2.35
2022-08-14T10:48:36.803Z,2.05
2022-08-14T10:51:08.485Z,2.60
2022-08-14T10:53:39.972Z,1.95
2022-08-14T10:56:22.074Z,2.30
2022-08-14T10:59:02.878Z,2.03
2022-08-14T11:01:40.823Z,1.90
2022-08-14T11:04:30.723Z,2.45
2022-08-14T11:06:59.841Z,1.95
2022-08-14T11:09:32.305Z,1.90
2022-08-14T11:12:35.078Z,1.88
2022-08-14T11:14:58.502Z,2.10
2022-08-14T11:17:32.179Z,2.10
2022-08-14T11:20:04.046Z,2.20
2022-08-14T11:23:03.081Z,2.15
2022-08-14T11:25:24.804Z,8.90
2022-08-14T11:28:11.036Z,2.00
2022-08-14T11:30:50.343Z,2.38
2022-08-14T11:33:24.526Z,1.98
2022-08-14T11:35:59.656Z,1.85
2022-08-14T11:38:29.324Z,1.83
2022-08-14T11:41:00.254Z,1.90
2022-08-14T11:43:30.702Z,1.88
2022-08-14T11:46:03.646Z,2.10
2022-08-14T11:49:03.551Z,1.75
2022-08-14T11:51:53.463Z,1.80
2022-08-14T11:54:34.395Z,1.83
2022-08-14T11:57:05.341Z,1.67
2022-08-14T11:59:34.272Z,1.90
2022-08-14T12:02:39.113Z,1.42
2022-08-14T12:05:03.967Z,1.83
2022-08-14T12:07:48.305Z,1.60
2022-08-14T12:10:26.938Z,2.08
2022-08-14T12:13:17.498Z,1.88
2022-08-14T12:15:51.462Z,2.00
2022-08-14T12:18:32.676Z,1.65
2022-08-14T12:21:15.728Z,2.45
2022-08-14T12:23:51.276Z,1.70
2022-08-14T12:26:40.150Z,1.73
2022-08-14T12:29:11.017Z,1.60
2022-08-14T12:31:44.729Z,1.98
2022-08-14T12:34:20.613Z,2.00
2022-08-14T12:37:04.233Z,2.10
2022-08-14T12:39:39.793Z,2.60
2022-08-14T12:42:11.846Z,2.13
2022-08-14T12:44:59.040Z,2.15
2022-08-14T12:47:32.555Z,2.03
2022-08-14T12:50:01.331Z,2.20
2022-08-14T12:52:45.326Z,2.53
2022-08-14T12:55:22.063Z,2.20
2022-08-14T12:57:55.299Z,1.85
2022-08-14T13:00:26.313Z,2.03
2022-08-14T13:02:56.898Z,1.80
2022-08-14T13:05:28.473Z,2.08
2022-08-14T13:07:59.266Z,2.10
2022-08-14T13:10:47.477Z,2.50
2022-08-14T13:13:22.096Z,2.13
2022-08-14T13:15:56.105Z,1.98
2022-08-14T13:18:28.026Z,2.17
2022-08-14T13:21:02.268Z,2.30
2022-08-14T13:23:36.443Z,1.92
2022-08-14T13:26:09.146Z,2.20
2022-08-14T13:29:02.031Z,1.75
2022-08-14T13:31:34.704Z,2.08
2022-08-14T13:34:04.474Z,1.70
2022-08-14T13:36:51.748Z,2.15
2022-08-14T13:39:24.640Z,2.15
2022-08-14T13:41:55.605Z,2.20
2022-08-14T13:44:28.837Z,2.47
2022-08-14T13:46:58.765Z,2.00
2022-08-14T13:49:29.163Z,2.30
2022-08-14T13:52:00.247Z,1.63
2022-08-14T13:54:32.885Z,2.40
2022-08-14T13:57:03.944Z,2.05
2022-08-14T13:59:37.372Z,2.30
2022-08-14T14:02:09.827Z,1.92
2022-08-14T14:04:42.197Z,2.05
2022-08-14T14:07:14.260Z,1.52
2022-08-14T14:09:52.998Z,1.80
2022-08-14T14:12:49.179Z,2.03
2022-08-14T14:15:17.721Z,1.60
2022-08-14T14:17:47.805Z,1.88
2022-08-14T14:20:34.581Z,1.90
2022-08-14T14:23:11.864Z,1.98
2022-08-14T14:25:48.458Z,2.00
2022-08-14T14:28:23.889Z,1.70
2022-08-14T14:30:57.271Z,2.00
2022-08-14T14:33:49.556Z,2.00
2022-08-14T14:36:21.876Z,1.42
2022-08-14T14:38:53.555Z,2.13
2022-08-14T14:41:23.751Z,1.67
2022-08-14T14:43:57.880Z,1.98
2022-08-14T14:46:36.755Z,1.85
2022-08-14T14:49:08.946Z,2.00
2022-08-14T14:51:43.430Z,1.80
2022-08-14T14:54:13.310Z,2.13
2022-08-14T14:56:52.256Z,1.70
2022-08-14T14:59:25.405Z,1.70
2022-08-14T15:02:00.689Z,1.90
2022-08-14T15:04:29.342Z,1.80
2022-08-14T15:06:57.895Z,1.77
2022-08-14T15:09:27.579Z,2.35
2022-08-14T15:11:57.807Z,1.70
2022-08-14T15:14:54.781Z,1.88
2022-08-14T15:17:17.283Z,2.00
2022-08-14T15:19:56.360Z,1.90
2022-08-14T15:22:29.055Z,1.73
2022-08-14T15:24:59.047Z,1.80
2022-08-14T15:27:29.478Z,1.75
2022-08-14T15:29:59.621Z,1.63
2022-08-14T15:32:29.217Z,2.22
2022-08-14T15:34:58.297Z,1.70
2022-08-14T15:37:32.626Z,1.85
2022-08-14T15:40:02.439Z,1.80
2022-08-14T15:42:38.101Z,1.90
2022-08-14T15:45:12.864Z,2.22
2022-08-14T15:47:43.378Z,1.95
2022-08-14T15:50:13.378Z,2.15
2022-08-14T15:52:45.032Z,1.73
2022-08-14T15:55:16.152Z,1.95
2022-08-14T15:58:02.128Z,1.83
2022-08-14T16:00:53.878Z,1.70
2022-08-14T16:03:27.597Z,2.03
2022-08-14T16:06:05.840Z,1.70
2022-08-14T16:08:40.151Z,1.77
2022-08-14T16:11:10.663Z,1.73
2022-08-14T16:13:43.488Z,1.90
2022-08-14T16:16:49.391Z,1.83
2022-08-14T16:19:09.943Z,2.28
2022-08-14T16:22:01.586Z,2.10
2022-08-14T16:25:02.207Z,1.88
2022-08-14T16:27:37.179Z,2.00
2022-08-14T16:30:24.803Z,1.90
2022-08-14T16:32:57.051Z,2.00
2022-08-14T16:35:42.697Z,1.98
2022-08-14T16:38:19.728Z,2.20
2022-08-14T16:41:23.255Z,2.03
2022-08-14T16:43:59.414Z,1.98
2022-08-14T16:46:31.424Z,2.25
2022-08-14T16:49:03.214Z,2.05
2022-08-14T16:51:36.497Z,2.00
2022-08-14T16:54:21.099Z,2.00
2022-08-14T16:57:13.810Z,1.83
2022-08-14T16:59:57.280Z,2.10
2022-08-14T17:02:36.672Z,1.83
2022-08-14T17:05:22.060Z,2.10
2022-08-14T17:08:31.455Z,2.20
2022-08-14T17:11:10.558Z,1.90
2022-08-14T17:13:59.738Z,1.90
2022-08-14T17:16:35.658Z,2.30
2022-08-14T17:19:05.730Z,2.00
2022-08-14T17:21:41.915Z,2.30
2022-08-14T17:24:57.755Z,2.13
2022-08-14T17:27:03.661Z,3.03
2022-08-14T17:29:34.573Z,1.80
2022-08-14T17:32:21.872Z,1.60
2022-08-14T17:34:57.697Z,2.40
2022-08-14T17:37:37.776Z,2.25
2022-08-14T17:40:15.934Z,1.77
2022-08-14T17:42:55.705Z,1.90
2022-08-14T17:45:46.803Z,2.00
2022-08-14T17:49:10.835Z,1.92
2022-08-14T17:51:23.752Z,2.08
2022-08-14T17:54:02.323Z,1.98
2022-08-14T17:56:38.730Z,1.60
2022-08-14T17:59:08.675Z,2.10
2022-08-14T18:01:46.448Z,2.17
2022-08-14T18:04:24.467Z,1.80
2022-08-14T18:07:16.774Z,2.28
2022-08-14T18:09:57.610Z,1.70
2022-08-14T18:12:36.935Z,2.20
2022-08-14T18:15:14.459Z,2.10
2022-08-14T18:17:52.742Z,1.90
2022-08-14T18:21:40.969Z,1.80
2022-08-14T18:23:14.323Z,1.85
2022-08-14T18:25:51.618Z,2.05
2022-08-14T18:28:51.967Z,2.38
2022-08-14T18:31:43.375Z,2.40
2022-08-14T18:34:31.741Z,2.00
2022-08-14T18:37:16.567Z,2.13
2022-08-14T18:39:51.688Z,2.08
2022-08-14T18:42:47.091Z,2.35
2022-08-14T18:45:18.915Z,2.38
2022-08-14T18:48:33.228Z,2.33
2022-08-14T18:51:15.125Z,2.33
2022-08-14T18:53:57.171Z,2.35
2022-08-14T18:56:58.407Z,2.20
2022-08-14T18:59:37.536Z,2.40
2022-08-14T19:02:43.421Z,2.60
2022-08-14T19:05:14.281Z,2.30
2022-08-14T19:07:48.162Z,3.08
2022-08-14T19:10:31.837Z,2.65
2022-08-14T19:13:11.927Z,2.50
2022-08-14T19:15:44.745Z,2.72
2022-08-14T19:18:26.194Z,2.60
2022-08-14T19:20:59.166Z,2.42
2022-08-14T19:23:42.095Z,2.50
2022-08-14T19:26:36.774Z,2.55
2022-08-14T19:29:21.136Z,2.60
2022-08-14T19:31:56.253Z,2.78
2022-08-14T19:34:47.958Z,2.58
2022-08-14T19:37:52.475Z,2.47
2022-08-14T19:40:33.961Z,2.53
2022-08-14T19:43:06.662Z,2.95
2022-08-14T19:45:38.432Z,2.85
2022-08-14T19:48:15.757Z,2.70
2022-08-14T19:50:47.082Z,3.03
2022-08-14T19:53:18.468Z,3.20
2022-08-14T19:55:59.644Z,3.20
2022-08-14T19:58:54.784Z,3.42
2022-08-14T20:01:37.283Z,3.17
2022-08-14T20:04:45.017Z,3.50
2022-08-14T20:07:01.594Z,3.65
2022-08-14T20:11:04.631Z,4.30
2022-08-14T20:12:36.618Z,3.65
2022-08-14T20:15:26.912Z,3.75
2022-08-14T20:18:46.016Z,4.05
2022-08-14T20:21:05.753Z,3.42
2022-08-14T20:23:37.956Z,3.05
2022-08-14T20:26:30.738Z,3.10
2022-08-14T20:29:04.588Z,3.55
2022-08-14T20:31:38.342Z,3.08
2022-08-14T20:34:24.615Z,3.10
2022-08-14T20:37:09.802Z,3.05
2022-08-14T20:39:45.122Z,4.70
2022-08-14T20:42:43.471Z,3.88
2022-08-14T20:45:23.660Z,3.55
2022-08-14T20:47:58.610Z,4.10
2022-08-14T20:50:32.005Z,3.88
2022-08-14T20:53:05.694Z,3.75
2022-08-14T20:55:41.571Z,4.18
2022-08-14T21:01:33.105Z,4.10
2022-08-14T21:04:12.033Z,3.92
2022-08-14T21:07:22.878Z,4.18
2022-08-14T21:10:03.039Z,3.75
2022-08-14T21:12:33.537Z,3.95
2022-08-14T21:15:03.974Z,4.57
2022-08-14T21:17:37.492Z,4.65
2022-08-14T21:20:25.626Z,4.90
2022-08-14T21:23:00.346Z,4.30
2022-08-14T21:25:31.848Z,3.95
2022-08-14T21:28:04.239Z,3.67
2022-08-14T21:30:51.537Z,4.50
2022-08-14T21:33:23.921Z,4.68
2022-08-14T21:35:55.038Z,5.32
2022-08-14T21:38:34.251Z,6.78
2022-08-14T21:41:43.066Z,7.13
2022-08-14T21:44:17.401Z,8.65
2022-08-14T21:46:49.791Z,8.88
2022-08-14T21:49:23.589Z,11.45
2022-08-14T21:51:58.831Z,10.00
2022-08-14T21:54:50.169Z,9.13
2022-08-14T21:57:55.883Z,8.82
2022-08-14T22:00:35.346Z,7.63
2022-08-14T22:03:04.527Z,8.38
2022-08-14T22:05:34.851Z,10.95
2022-08-14T22:08:07.522Z,11.00
2022-08-14T22:10:43.002Z,10.68
2022-08-14T22:13:17.289Z,12.00
2022-08-14T22:15:50.067Z,9.93
2022-08-14T22:18:21.007Z,11.10
2022-08-14T22:20:56.474Z,11.45
2022-08-14T22:23:27.172Z,10.82
2022-08-14T22:25:56.757Z,13.00
2022-08-14T22:28:32.484Z,11.20
2022-08-14T22:31:03.793Z,11.48
2022-08-14T22:33:40.363Z,11.15
2022-08-14T22:36:34.179Z,10.05
2022-08-14T22:39:10.965Z,11.95
2022-08-14T22:41:42.741Z,12.05
2022-08-14T22:44:15.201Z,12.48
2022-08-14T22:46:45.228Z,10.57
2022-08-14T22:49:15.467Z,10.43
2022-08-14T22:52:32.895Z,10.65
2022-08-14T22:54:58.737Z,10.40
2022-08-14T22:57:37.801Z,8.57
2022-08-14T23:00:16.578Z,9.98
2022-08-14T23:02:46.806Z,11.48
2022-08-14T23:05:16.470Z,12.45
2022-08-14T23:09:02.232Z,10.65
2022-08-14T23:10:55.692Z,10.82
2022-08-14T23:13:25.072Z,10.52
2022-08-14T23:15:55.348Z,10.25
2022-08-14T23:18:25.383Z,9.52
2022-08-14T23:20:59.225Z,9.02
2022-08-14T23:23:29.954Z,9.30
2022-08-14T23:26:46.883Z,9.10
2022-08-14T23:28:57.157Z,10.98
2022-08-14T23:31:36.183Z,9.18
2022-08-14T23:34:07.558Z,9.05
2022-08-14T23:36:52.726Z,8.45
2022-08-14T23:39:29.563Z,9.18
2022-08-14T23:42:04.563Z,8.30
2022-08-14T23:44:37.083Z,8.98
2022-08-14T23:47:11.755Z,9.30
2022-08-14T23:50:00.877Z,9.43
2022-08-14T23:53:06.218Z,8.55
2022-08-14T23:55:29.672Z,9.30
2022-08-14T23:57:59.279Z,8.75
